Terminal Aerodrome Forecast
Issued by NWS Rapid City, SD

Home | Current Version | Previous Version | Graphics & Text | Print | Product List | Glossary On
Versions: 1 2 3 4 5 6 7 8 9 10 11 12 13 14 15 16 17
000
FTUS43 KUNR 170200 AAA
TAFRAP
TAF AMD
KRAP 170224Z 1702/1724 05008KT P6SM SCT030 BKN040
      TEMPO 1702/1704 BKN025
     FM170400 VRB04KT P6SM BKN025
     FM171200 15010KT P6SM SCT030=

USA.gov is the U.S. government's official web portal to all federal, state and local government web resources and services.